KOPF/OPF METAR and TAF weather

Enter ICAO airport designator
Station Type Date Time Source
KOPF METAR 2020/01/29 03:20 UTC NOAA

KOPF 290320Z 32005KT 10SM FEW019 20/16 A2995 RMK AO2 T02000161 PNO


Station Type Date Time Source
KOPF Decoded METAR 2020/01/29 03:20 UTC NOAA

MIAMI OPA LOCKA AIRPORT, FL, United States (KOPF) 25-54N 80-17W 16M
Jan 28, 2020 - 10:20 PM EST / 2020.01.29 0320 UTC
Wind: from the NW (320 degrees) at 6 MPH (5 KT):0
Visibility: 10 mile(s):0
Sky conditions: mostly clear
Temperature: 68.0 F (20.0 C)
Dew Point: 61.0 F (16.1 C)
Relative Humidity: 78%
Pressure (altimeter): 29.95 in. Hg (1014 hPa)
ob: KOPF 290320Z 32005KT 10SM FEW019 20/16 A2995 RMK AO2 T02000161 PNO
cycle: 3

Station Type Date Time Source
KOPF TAF 2020/01/29 03:54 UTC NOAA

TAF
AMD KOPF 290253Z 2903/2924 01007KT P6SM FEW025 SCT050
FM290400 VRB03KT P6SM FEW025 SCT045
FM291400 07004KT P6SM FEW050 SCT100
FM292200 17008KT P6SM FEW035 SCT140

Example: see airport list